KRCX

Rusk County Airport

Ladysmith, Wisconsin, USA
METAR KRCX 221735Z AUTO 19003KT 10SM BKN020 OVC050 20/14 A3009 RMK AO2 T01950137
Observed Flight Rules
May-22 @ 17:35 UTC (12 minutes ago) Marginal Visual Flight Rules
Wind Visibility Clouds
190° at 3 knots 10 miles
  • Broken at 2,000' AGL
  • Overcast at 5,000' AGL
Temperatures Readings
Current 20°C / 68°F
Dewpoint 14°C / 57°F
Humidity 69%
Altimeter 30.09" Hg
Pressure 1019 hPa
Elevation 377
METAR KRCX 221735Z AUTO 19003KT 10SM BKN020 OVC050 20/14 A3009 RMK AO2 T01950137
Observed Flight Rules
May-22 @ 17:35 UTC
(12 minutes ago)
MVFR
Wind Visibility
190° at 3 knots 10 miles
Clouds
  • Broken at 2,000' AGL
  • Overcast at 5,000' AGL
Temperature Dewpoint
20°C / 68°F 14°C / 57°F
Humidity Altimeter Pressure
69% 30.09" Hg 1019 hPa